Time;durP1;ratioP1;P1;durP2;ratioP2;P2;SDS_P1;SDS_P2;PMS_P1;PMS_P2;Temp;Humidity;BMP_temperature;BMP_pressure;BME280_temperature;BME280_humidity;BME280_pressure;Samples;Min_cycle;Max_cycle;Signal;HPM_P1;HPM_P2
2021/05/01 00:00:16;;;;;;;16.00;10.80;;;15.10;91.70;;;;;;4979028;28;20114;-82
2021/05/01 00:02:43;;;;;;;18.00;11.07;;;15.10;91.60;;;;;;5009516;28;20026;-82
2021/05/01 00:05:09;;;;;;;13.55;10.02;;;15.00;91.60;;;;;;4977582;28;20143;-82
2021/05/01 00:07:35;;;;;;;14.95;10.23;;;15.00;91.70;;;;;;4977704;28;20026;-81
2021/05/01 00:10:01;;;;;;;19.27;10.55;;;15.00;91.70;;;;;;4977565;28;20540;-82
2021/05/01 00:12:26;;;;;;;12.40;10.30;;;15.00;91.80;;;;;;4977414;28;20092;-82
2021/05/01 00:14:52;;;;;;;16.00;9.85;;;15.00;91.80;;;;;;4977276;28;20083;-82
2021/05/01 00:17:18;;;;;;;15.98;9.23;;;15.00;91.90;;;;;;4977234;28;20023;-82
2021/05/01 00:19:43;;;;;;;12.98;9.45;;;15.00;91.90;;;;;;4977294;28;20366;-82
2021/05/01 00:22:09;;;;;;;10.98;8.40;;;14.90;91.90;;;;;;4977415;28;20038;-82
2021/05/01 00:24:35;;;;;;;16.92;8.82;;;15.00;91.80;;;;;;5008419;28;20742;-82
2021/05/01 00:27:01;;;;;;;10.88;8.93;;;14.90;91.70;;;;;;4979398;28;20053;-82
2021/05/01 00:29:26;;;;;;;12.35;8.07;;;14.90;91.80;;;;;;4978475;28;20411;-81
2021/05/01 00:31:52;;;;;;;12.50;9.10;;;14.90;91.80;;;;;;5008531;28;20034;-82
2021/05/01 00:34:18;;;;;;;13.02;8.93;;;14.90;91.80;;;;;;4977434;28;20054;-82
2021/05/01 00:36:43;;;;;;;14.65;9.20;;;14.90;91.70;;;;;;5009540;28;20034;-79
2021/05/01 00:39:09;;;;;;;11.80;9.43;;;14.80;91.70;;;;;;4976909;28;20035;-80
2021/05/01 00:41:35;;;;;;;13.13;8.68;;;14.80;91.70;;;;;;4977182;28;20023;-80
2021/05/01 00:44:05;;;;;;;13.63;10.23;;;14.80;91.70;;;;;;5008076;28;20026;-80
2021/05/01 00:46:31;;;;;;;11.80;8.60;;;14.70;91.80;;;;;;4976902;28;20019;-80
2021/05/01 00:48:57;;;;;;;10.98;7.85;;;14.70;91.80;;;;;;4976868;28;20027;-80
2021/05/01 00:51:23;;;;;;;14.57;7.78;;;14.70;91.70;;;;;;5008440;28;20041;-80
2021/05/01 00:53:49;;;;;;;13.57;7.13;;;14.70;91.70;;;;;;4976126;28;20027;-79
2021/05/01 00:56:15;;;;;;;9.23;7.43;;;14.60;91.70;;;;;;4976008;28;20110;-81
2021/05/01 00:58:42;;;;;;;24.65;7.88;;;14.60;91.70;;;;;;4977161;28;20055;-81
2021/05/01 01:03:34;;;;;;;11.65;7.47;;;14.50;91.60;;;;;;4976648;28;20421;-79
2021/05/01 01:06:00;;;;;;;14.30;7.45;;;14.50;91.70;;;;;;4976415;28;20023;-81
2021/05/01 01:08:26;;;;;;;10.77;7.47;;;14.40;91.70;;;;;;4976191;28;20359;-79
2021/05/01 01:10:53;;;;;;;7.85;6.80;;;14.30;91.80;;;;;;4976350;28;20114;-80
2021/05/01 01:13:20;;;;;;;10.98;7.50;;;14.30;91.90;;;;;;4976054;28;20422;-80
2021/05/01 01:15:46;;;;;;;10.00;7.07;;;14.30;91.90;;;;;;4975960;28;20461;-80
2021/05/01 01:18:12;;;;;;;11.10;7.40;;;14.20;92.00;;;;;;5006996;28;20482;-79
2021/05/01 01:20:38;;;;;;;10.80;7.40;;;14.20;92.10;;;;;;5006732;28;20033;-80
2021/05/01 01:23:04;;;;;;;11.57;7.82;;;14.10;92.20;;;;;;4975360;28;20029;-80
2021/05/01 01:25:30;;;;;;;11.63;7.60;;;14.10;92.30;;;;;;4975181;28;20046;-79
2021/05/01 01:27:58;;;;;;;11.43;7.05;;;14.10;92.40;;;;;;5006110;28;20035;-79
2021/05/01 01:30:27;;;;;;;12.65;8.55;;;14.00;92.40;;;;;;4975104;28;20085;-80
2021/05/01 01:32:53;;;;;;;13.68;7.97;;;14.00;92.50;;;;;;4975922;28;20030;-80
2021/05/01 01:35:20;;;;;;;13.20;7.85;;;14.00;92.60;;;;;;4976372;28;20102;-80
2021/05/01 01:37:47;;;;;;;12.90;8.50;;;13.90;92.70;;;;;;5008601;28;20035;-80
2021/05/01 01:40:15;;;;;;;11.85;8.70;;;13.90;92.80;;;;;;5007057;28;20058;-80
2021/05/01 01:42:41;;;;;;;11.95;8.23;;;13.80;92.80;;;;;;5006983;28;20023;-80
2021/05/01 01:45:09;;;;;;;11.55;8.30;;;13.80;92.90;;;;;;4975218;28;20030;-79
2021/05/01 01:47:35;;;;;;;11.85;7.88;;;13.80;93.00;;;;;;4975100;28;20026;-80
2021/05/01 01:50:01;;;;;;;11.35;8.05;;;13.70;93.10;;;;;;4975238;28;20074;-80
2021/05/01 01:52:27;;;;;;;13.15;8.30;;;13.70;93.20;;;;;;4974984;28;20031;-79
2021/05/01 01:54:53;;;;;;;13.52;8.82;;;13.70;93.30;;;;;;4975208;28;20711;-79
2021/05/01 01:57:18;;;;;;;13.00;8.65;;;13.60;93.30;;;;;;5005262;28;20030;-85
2021/05/01 01:59:44;;;;;;;13.25;9.10;;;13.60;93.40;;;;;;5005104;28;20031;-84
2021/05/01 02:02:10;;;;;;;13.40;9.13;;;13.60;93.50;;;;;;4974822;28;20050;-84
2021/05/01 02:04:36;;;;;;;12.10;9.48;;;13.60;93.60;;;;;;4975401;28;20019;-85
2021/05/01 02:07:02;;;;;;;15.18;9.30;;;13.50;93.60;;;;;;4975282;28;20033;-84
2021/05/01 02:09:28;;;;;;;11.60;9.05;;;13.50;93.70;;;;;;5006620;28;20390;-83
2021/05/01 02:11:54;;;;;;;14.52;9.75;;;13.50;93.90;;;;;;5010867;28;20027;-82
2021/05/01 02:14:20;;;;;;;14.57;10.05;;;13.50;94.00;;;;;;4976672;28;20031;-83
2021/05/01 02:16:46;;;;;;;14.50;10.05;;;13.40;94.00;;;;;;4975584;28;20019;-83
2021/05/01 02:19:11;;;;;;;15.10;11.07;;;13.40;94.10;;;;;;4975059;28;20536;-83
2021/05/01 02:21:37;;;;;;;15.93;11.23;;;13.40;94.20;;;;;;4974838;28;20343;-83
2021/05/01 02:24:03;;;;;;;13.55;10.52;;;13.30;94.30;;;;;;4974552;28;20026;-83
2021/05/01 02:26:28;;;;;;;13.82;10.45;;;13.30;94.40;;;;;;4974982;28;20058;-83
2021/05/01 02:28:54;;;;;;;16.98;11.30;;;13.30;94.50;;;;;;4975689;28;20027;-83
2021/05/01 02:31:20;;;;;;;19.48;11.30;;;13.30;94.70;;;;;;4975677;28;20343;-83
2021/05/01 02:33:46;;;;;;;16.70;10.63;;;13.30;94.70;;;;;;4975583;28;20097;-84
2021/05/01 02:36:11;;;;;;;14.63;10.35;;;13.30;94.90;;;;;;4975491;28;20078;-83
2021/05/01 02:38:37;;;;;;;14.05;10.82;;;13.30;95.00;;;;;;4974997;28;20027;-83
2021/05/01 02:41:03;;;;;;;15.07;10.43;;;13.30;95.30;;;;;;4975131;28;20377;-84
2021/05/01 02:43:29;;;;;;;15.43;10.65;;;13.50;95.90;;;;;;5006358;28;20061;-83
2021/05/01 02:45:55;;;;;;;12.52;9.93;;;13.70;96.50;;;;;;4976333;28;20027;-83
2021/05/01 02:48:21;;;;;;;13.50;10.70;;;14.00;96.90;;;;;;4975449;28;20023;-82
2021/05/01 02:50:47;;;;;;;16.40;9.88;;;14.30;96.90;;;;;;4975372;28;20034;-83
2021/05/01 02:53:13;;;;;;;12.25;9.10;;;14.60;96.70;;;;;;4975698;28;20477;-84
2021/05/01 02:55:39;;;;;;;13.32;9.40;;;14.90;96.50;;;;;;4975361;28;20038;-83
2021/05/01 02:58:04;;;;;;;16.48;9.98;;;15.30;96.10;;;;;;4975163;28;20030;-83
2021/05/01 03:00:32;;;;;;;14.95;9.07;;;15.70;95.80;;;;;;4974887;28;20023;-83
2021/05/01 03:02:57;;;;;;;13.38;8.43;;;16.20;95.10;;;;;;4975213;28;20470;-84
2021/05/01 03:05:24;;;;;;;12.30;8.35;;;16.60;94.20;;;;;;5006041;28;20031;-84
2021/05/01 03:07:50;;;;;;;12.32;8.35;;;17.10;93.50;;;;;;4974938;28;20030;-84
2021/05/01 03:10:22;;;;;;;10.93;8.52;;;17.70;92.60;;;;;;4974901;28;20031;-83
2021/05/01 03:12:48;;;;;;;19.70;9.25;;;18.40;91.30;;;;;;4974908;28;20117;-84
2021/05/01 03:15:14;;;;;;;12.88;8.52;;;19.00;90.10;;;;;;4974967;28;20118;-84
2021/05/01 03:17:41;;;;;;;13.35;9.32;;;19.50;87.00;;;;;;4974780;28;20031;-84
2021/05/01 03:20:08;;;;;;;15.05;9.02;;;20.10;83.90;;;;;;5006120;28;20054;-84
2021/05/01 03:22:34;;;;;;;15.35;9.38;;;20.60;81.40;;;;;;4976633;28;20512;-83
2021/05/01 03:25:00;;;;;;;12.85;9.30;;;21.10;79.30;;;;;;4978211;28;20054;-83
2021/05/01 03:27:25;;;;;;;12.93;9.38;;;21.60;77.20;;;;;;4977770;28;20066;-84
2021/05/01 03:29:51;;;;;;;10.77;9.10;;;22.30;75.10;;;;;;4978137;28;20035;-84
2021/05/01 03:32:17;;;;;;;10.98;9.20;;;22.90;72.70;;;;;;5009656;28;20031;-84
2021/05/01 03:34:43;;;;;;;10.63;8.93;;;23.50;70.50;;;;;;5009472;28;20070;-83
2021/05/01 03:37:09;;;;;;;9.77;8.77;;;24.20;68.50;;;;;;4978084;28;20026;-85
2021/05/01 03:39:35;;;;;;;10.68;8.70;;;24.80;66.30;;;;;;4977984;28;20023;-84
2021/05/01 03:42:01;;;;;;;15.48;9.07;;;25.40;64.50;;;;;;4977692;28;20046;-83
2021/05/01 03:44:28;;;;;;;20.92;9.75;;;26.10;62.70;;;;;;4977644;28;20026;-81
2021/05/01 03:46:54;;;;;;;11.20;9.05;;;26.80;60.80;;;;;;4977546;28;20023;-83
2021/05/01 03:49:20;;;;;;;14.10;9.38;;;27.50;59.30;;;;;;4977272;28;20031;-82
2021/05/01 03:51:46;;;;;;;10.73;8.90;;;28.20;57.60;;;;;;4977216;28;20107;-80
2021/05/01 03:54:12;;;;;;;12.60;8.93;;;28.80;56.00;;;;;;4975678;28;20027;-80
2021/05/01 03:56:38;;;;;;;12.73;8.93;;;29.30;54.60;;;;;;4976457;28;20041;-80
2021/05/01 03:59:04;;;;;;;10.20;9.05;;;30.00;53.10;;;;;;4976378;28;20077;-80
2021/05/01 04:01:30;;;;;;;21.77;9.73;;;30.50;51.90;;;;;;4976981;28;20035;-80
2021/05/01 04:03:55;;;;;;;10.95;8.40;;;31.00;50.80;;;;;;4976703;28;20058;-79
2021/05/01 04:06:21;;;;;;;11.63;9.32;;;31.60;49.70;;;;;;4976464;28;20044;-79
2021/05/01 04:08:47;;;;;;;11.25;8.57;;;32.00;48.50;;;;;;4976458;28;20030;-81
2021/05/01 04:11:13;;;;;;;9.65;8.55;;;32.20;47.60;;;;;;4975546;28;20078;-80
2021/05/01 04:13:47;;;;;;;10.48;8.55;;;32.50;47.10;;;;;;4975582;28;20023;-79
2021/05/01 04:16:17;;;;;;;10.75;8.45;;;33.00;46.60;;;;;;4975710;28;20037;-79
2021/05/01 04:18:46;;;;;;;22.95;9.57;;;33.50;45.50;;;;;;5006971;28;20561;-80
2021/05/01 04:21:12;;;;;;;10.77;8.20;;;33.80;45.00;;;;;;4976201;28;20018;-81
2021/05/01 04:23:37;;;;;;;10.05;7.55;;;34.00;44.10;;;;;;4975913;28;20031;-80
2021/05/01 04:26:03;;;;;;;9.07;8.18;;;34.20;43.70;;;;;;4975936;28;20501;-81
2021/05/01 04:28:30;;;;;;;12.88;8.38;;;34.40;43.20;;;;;;5007132;28;20038;-79
2021/05/01 04:30:56;;;;;;;8.32;7.43;;;34.70;42.80;;;;;;4975425;28;20073;-79
2021/05/01 04:33:23;;;;;;;17.85;8.05;;;35.00;42.30;;;;;;4976055;28;20026;-79
2021/05/01 04:35:49;;;;;;;11.93;7.82;;;35.30;41.90;;;;;;4976621;28;20050;-80
2021/05/01 04:38:16;;;;;;;11.27;8.23;;;35.70;41.40;;;;;;4976657;28;20109;-79
2021/05/01 04:40:42;;;;;;;14.93;10.05;;;36.00;41.00;;;;;;4975383;28;20018;-80
2021/05/01 04:43:10;;;;;;;14.23;8.15;;;36.30;40.50;;;;;;4975570;28;20493;-79
2021/05/01 04:45:36;;;;;;;11.60;7.53;;;36.60;40.00;;;;;;4975265;28;20173;-84
2021/05/01 04:48:04;;;;;;;10.63;7.55;;;36.90;39.50;;;;;;4975166;28;20030;-77
2021/05/01 04:50:29;;;;;;;11.43;7.07;;;37.30;39.10;;;;;;5005824;28;20027;-77
2021/05/01 04:52:55;;;;;;;9.93;6.70;;;37.60;38.90;;;;;;4974676;28;20042;-78
2021/05/01 04:55:23;;;;;;;9.30;6.15;;;37.80;38.30;;;;;;4974389;28;20037;-77
2021/05/01 04:57:49;;;;;;;7.13;5.85;;;38.10;37.90;;;;;;4973546;28;20049;-79
2021/05/01 05:00:20;;;;;;;14.23;6.53;;;38.30;37.60;;;;;;4971031;28;20066;-79
2021/05/01 05:02:46;;;;;;;7.28;6.20;;;38.60;37.20;;;;;;4974641;28;20019;-79
2021/05/01 05:05:13;;;;;;;7.03;6.32;;;38.80;37.00;;;;;;4972215;28;20023;-77
2021/05/01 05:07:39;;;;;;;8.20;6.20;;;39.10;36.80;;;;;;4973258;28;20038;-79
2021/05/01 05:10:06;;;;;;;11.90;5.47;;;39.30;36.50;;;;;;4974229;28;20033;-80
2021/05/01 05:12:32;;;;;;;11.60;5.68;;;39.50;36.20;;;;;;4972289;28;20544;-79
2021/05/01 05:14:58;;;;;;;9.30;5.45;;;39.60;35.80;;;;;;4972735;28;20106;-80
2021/05/01 05:17:24;;;;;;;8.88;5.43;;;39.80;35.90;;;;;;4972751;28;20023;-80
2021/05/01 05:19:50;;;;;;;7.05;5.40;;;40.00;35.60;;;;;;4972781;28;20102;-79
2021/05/01 05:22:15;;;;;;;7.22;5.88;;;40.20;35.30;;;;;;4972557;28;20031;-79
2021/05/01 05:24:41;;;;;;;6.35;5.68;;;40.20;35.20;;;;;;4972531;28;20426;-79
2021/05/01 05:27:10;;;;;;;9.98;5.70;;;40.30;34.90;;;;;;4972675;28;20525;-80
2021/05/01 05:29:36;;;;;;;19.80;6.25;;;40.50;34.90;;;;;;4972738;28;20027;-79
2021/05/01 05:32:04;;;;;;;12.88;5.85;;;40.60;34.90;;;;;;4972318;28;20025;-79
2021/05/01 05:34:33;;;;;;;10.45;5.28;;;40.70;34.70;;;;;;5003356;28;20437;-79
2021/05/01 05:36:59;;;;;;;8.88;5.75;;;40.80;34.50;;;;;;4972074;28;20029;-79
2021/05/01 05:39:26;;;;;;;13.15;5.95;;;41.00;34.20;;;;;;4972441;28;20019;-79
2021/05/01 05:41:51;;;;;;;7.18;5.43;;;41.10;33.90;;;;;;5003925;28;20033;-78
2021/05/01 05:44:17;;;;;;;5.68;5.07;;;41.10;33.80;;;;;;5003557;28;20409;-80
2021/05/01 05:46:43;;;;;;;5.10;4.60;;;41.30;33.70;;;;;;4972475;28;20031;-78
2021/05/01 05:49:09;;;;;;;5.28;4.78;;;41.30;33.40;;;;;;5002417;28;20030;-79
2021/05/01 05:51:36;;;;;;;11.68;5.50;;;41.30;33.40;;;;;;4971946;28;20073;-78
2021/05/01 05:54:02;;;;;;;14.07;6.93;;;41.50;33.20;;;;;;4970147;28;20117;-80
2021/05/01 05:56:28;;;;;;;10.18;5.53;;;41.60;33.10;;;;;;4973133;28;20069;-78
2021/05/01 05:58:54;;;;;;;7.53;5.20;;;41.60;32.70;;;;;;4972588;28;20107;-80
2021/05/01 06:01:25;;;;;;;6.20;5.10;;;41.70;32.70;;;;;;4973058;28;20023;-76
2021/05/01 06:03:55;;;;;;;8.35;5.60;;;41.60;32.60;;;;;;4972880;28;20019;-76
2021/05/01 06:06:26;;;;;;;14.40;9.40;;;41.70;32.60;;;;;;4971620;28;20037;-75
2021/05/01 06:08:55;;;;;;;13.00;6.20;;;41.70;32.50;;;;;;4972880;28;20425;-77
2021/05/01 06:11:22;;;;;;;9.35;6.55;;;41.70;32.50;;;;;;4972718;28;20027;-76
2021/05/01 06:13:49;;;;;;;7.50;6.68;;;41.70;32.40;;;;;;5004284;28;20433;-75
2021/05/01 06:16:15;;;;;;;13.52;6.43;;;41.60;32.30;;;;;;4972613;28;20354;-76
2021/05/01 06:18:43;;;;;;;19.23;6.72;;;41.50;32.40;;;;;;4972900;28;20428;-76
2021/05/01 06:21:13;;;;;;;9.07;6.57;;;41.50;32.90;;;;;;4971652;28;20027;-75
2021/05/01 06:23:40;;;;;;;8.18;7.22;;;41.50;32.20;;;;;;4972714;28;20055;-79
2021/05/01 06:26:06;;;;;;;8.80;6.68;;;41.60;32.20;;;;;;4972664;28;20050;-80
2021/05/01 06:28:33;;;;;;;14.10;6.95;;;41.60;32.20;;;;;;4972769;28;20035;-78
2021/05/01 06:31:01;;;;;;;16.20;6.97;;;41.50;31.60;;;;;;4972079;28;20045;-77
2021/05/01 06:33:27;;;;;;;14.82;6.63;;;41.30;31.60;;;;;;4972256;28;20034;-78
2021/05/01 06:35:54;;;;;;;11.98;7.78;;;41.30;31.80;;;;;;5003407;28;20142;-77
2021/05/01 06:38:20;;;;;;;16.05;9.77;;;41.30;32.00;;;;;;4972042;28;20027;-76
2021/05/01 06:40:49;;;;;;;7.55;6.63;;;41.30;32.30;;;;;;4972103;28;20023;-77
2021/05/01 06:43:52;;;;;;;7.13;6.43;;;41.10;32.00;;;;;;5003590;28;20026;-77
2021/05/01 06:46:20;;;;;;;8.43;6.07;;;40.80;31.60;;;;;;4972416;28;20789;-78
2021/05/01 06:48:53;;;;;;;6.38;5.88;;;40.50;31.70;;;;;;4972294;28;20501;-77
2021/05/01 06:51:19;;;;;;;8.43;5.35;;;40.20;31.80;;;;;;4972298;28;20030;-78
2021/05/01 06:53:45;;;;;;;8.82;5.60;;;39.90;32.10;;;;;;4971750;28;20031;-77
2021/05/01 06:56:13;;;;;;;12.32;5.55;;;39.70;32.20;;;;;;4970455;28;20041;-78
2021/05/01 06:58:40;;;;;;;7.25;4.85;;;39.50;32.20;;;;;;4971166;28;20034;-74
2021/05/01 07:01:10;;;;;;;22.15;15.13;;;39.30;32.10;;;;;;4975284;28;20035;-76
2021/05/01 07:03:45;;;;;;;5.28;4.72;;;39.20;32.20;;;;;;4976403;28;20090;-77
2021/05/01 07:06:18;;;;;;;5.97;5.40;;;39.00;32.00;;;;;;4976004;28;20158;-78
2021/05/01 07:08:44;;;;;;;6.88;5.43;;;38.80;31.90;;;;;;4975516;28;20338;-74
2021/05/01 07:11:14;;;;;;;6.68;5.10;;;38.60;31.90;;;;;;4975859;28;20034;-77
2021/05/01 07:13:41;;;;;;;12.85;6.32;;;38.10;31.90;;;;;;4975778;28;20033;-77
2021/05/01 07:16:11;;;;;;;7.85;6.88;;;37.30;32.70;;;;;;4975983;28;20118;-76
2021/05/01 07:18:42;;;;;;;6.28;5.15;;;37.00;33.10;;;;;;4974185;28;20031;-76
2021/05/01 07:21:08;;;;;;;8.55;5.72;;;36.80;33.30;;;;;;5006482;28;20027;-75
2021/05/01 07:23:34;;;;;;;6.65;5.22;;;36.70;33.70;;;;;;5006560;28;20093;-75
2021/05/01 07:26:02;;;;;;;6.05;5.30;;;36.60;33.40;;;;;;4975779;28;20039;-75
2021/05/01 07:28:37;;;;;;;8.48;5.28;;;36.40;33.30;;;;;;4975790;28;20027;-75
2021/05/01 07:31:07;;;;;;;6.82;4.82;;;35.90;33.50;;;;;;4975512;28;20092;-73
2021/05/01 07:33:46;;;;;;;6.78;4.80;;;35.50;33.60;;;;;;4975292;28;20031;-76
2021/05/01 07:36:18;;;;;;;9.18;6.15;;;35.30;33.40;;;;;;4975209;28;20046;-75
2021/05/01 07:38:45;;;;;;;7.28;6.07;;;35.20;34.30;;;;;;4975079;28;20414;-76
2021/05/01 07:41:14;;;;;;;9.23;5.57;;;35.10;34.10;;;;;;4975257;28;20023;-77
2021/05/01 07:43:47;;;;;;;9.43;5.65;;;34.70;33.80;;;;;;5006373;28;20474;-73
2021/05/01 07:46:14;;;;;;;7.18;5.38;;;34.10;34.00;;;;;;4975362;28;20398;-76
2021/05/01 07:48:43;;;;;;;12.75;7.78;;;33.80;34.00;;;;;;4975199;28;20057;-75
2021/05/01 07:51:09;;;;;;;7.28;5.32;;;33.40;34.20;;;;;;4975337;28;20031;-74
2021/05/01 07:53:35;;;;;;;7.95;5.28;;;33.20;34.20;;;;;;5006394;28;20090;-74
2021/05/01 07:56:01;;;;;;;6.25;4.60;;;33.00;34.20;;;;;;5006075;28;20434;-73
2021/05/01 07:58:27;;;;;;;8.32;5.18;;;32.90;34.00;;;;;;5006045;28;20500;-75
2021/05/01 08:00:53;;;;;;;5.60;4.50;;;32.70;33.30;;;;;;4975193;28;20477;-75
2021/05/01 08:03:21;;;;;;;6.95;4.63;;;32.50;33.30;;;;;;4975050;28;20027;-74
2021/05/01 08:05:49;;;;;;;7.50;6.38;;;32.30;33.20;;;;;;4975155;28;20373;-73
2021/05/01 08:08:15;;;;;;;5.53;4.63;;;31.90;32.90;;;;;;4974748;28;20031;-73
2021/05/01 08:10:43;;;;;;;5.32;4.70;;;31.60;32.70;;;;;;4974859;28;20409;-74
2021/05/01 08:13:09;;;;;;;6.78;5.10;;;31.40;32.40;;;;;;4972854;28;20065;-74
2021/05/01 08:15:35;;;;;;;6.57;5.50;;;31.20;32.30;;;;;;5005989;28;20113;-74
2021/05/01 08:18:01;;;;;;;7.20;5.18;;;31.20;32.80;;;;;;4974960;28;20110;-73
2021/05/01 08:20:28;;;;;;;8.88;6.03;;;31.20;33.10;;;;;;4973084;28;20058;-74
2021/05/01 08:22:55;;;;;;;7.10;5.20;;;31.20;32.90;;;;;;4974560;28;20037;-74
2021/05/01 08:25:21;;;;;;;6.20;5.32;;;31.20;33.00;;;;;;4974494;28;20019;-74
2021/05/01 08:27:47;;;;;;;17.63;5.95;;;31.10;32.20;;;;;;4974499;28;20051;-74
2021/05/01 08:30:15;;;;;;;8.45;5.20;;;30.90;31.90;;;;;;5005917;28;20134;-77
2021/05/01 08:32:43;;;;;;;7.60;5.63;;;30.50;32.00;;;;;;4974798;28;20026;-75
2021/05/01 08:35:09;;;;;;;6.95;4.82;;;30.20;33.10;;;;;;5006260;28;20058;-74
2021/05/01 08:37:35;;;;;;;6.80;5.10;;;30.10;33.70;;;;;;5005882;28;20508;-74
2021/05/01 08:40:01;;;;;;;7.43;5.30;;;30.00;34.20;;;;;;4974160;28;20023;-74
2021/05/01 08:42:27;;;;;;;7.82;6.03;;;29.90;33.70;;;;;;4974465;28;20045;-74
2021/05/01 08:44:56;;;;;;;6.53;5.38;;;29.90;34.20;;;;;;4974191;28;20050;-75
2021/05/01 08:47:22;;;;;;;10.18;6.45;;;29.80;34.20;;;;;;4973470;28;20094;-75
2021/05/01 08:49:48;;;;;;;9.57;6.63;;;29.50;34.50;;;;;;4972416;28;20030;-75
2021/05/01 08:52:13;;;;;;;9.98;7.70;;;29.20;35.50;;;;;;4973880;28;20565;-74
2021/05/01 08:54:39;;;;;;;14.63;6.85;;;29.10;35.90;;;;;;4973465;28;20485;-74
2021/05/01 08:57:28;;;;;;;14.27;7.22;;;29.10;36.00;;;;;;4973839;28;20102;-75
2021/05/01 08:59:55;;;;;;;11.68;9.05;;;29.00;35.60;;;;;;4972801;28;20053;-75
2021/05/01 09:02:24;;;;;;;10.07;6.47;;;28.90;36.00;;;;;;4973510;28;20033;-74
2021/05/01 09:04:51;;;;;;;9.65;6.05;;;28.90;36.20;;;;;;4972421;28;20019;-73
2021/05/01 09:07:18;;;;;;;8.60;6.28;;;28.70;36.20;;;;;;4973864;28;20022;-74
2021/05/01 09:09:58;;;;;;;8.98;7.35;;;28.40;36.30;;;;;;4973803;28;20019;-75
2021/05/01 09:12:42;;;;;;;6.75;5.43;;;28.10;36.40;;;;;;4972318;28;20085;-74
2021/05/01 09:15:11;;;;;;;9.38;7.32;;;27.90;36.90;;;;;;4972685;28;20058;-74
2021/05/01 09:17:39;;;;;;;9.32;6.45;;;28.00;37.00;;;;;;4973500;28;20117;-73
2021/05/01 09:20:07;;;;;;;10.63;6.28;;;27.80;37.10;;;;;;4972267;28;20427;-74
2021/05/01 09:22:55;;;;;;;7.75;5.70;;;27.70;37.20;;;;;;4973586;28;20138;-75
2021/05/01 09:25:22;;;;;;;6.47;5.78;;;27.70;37.30;;;;;;4960289;28;20039;-76
2021/05/01 09:28:03;;;;;;;8.93;6.30;;;27.70;37.50;;;;;;4973768;28;20162;-76
2021/05/01 09:30:31;;;;;;;7.53;5.22;;;27.70;37.80;;;;;;4973222;28;20059;-75
2021/05/01 09:33:35;;;;;;;7.57;5.85;;;27.70;37.60;;;;;;4973027;28;20031;-74
2021/05/01 09:36:10;;;;;;;5.85;5.13;;;27.60;37.80;;;;;;4973511;28;20433;-76
2021/05/01 09:38:43;;;;;;;7.63;6.25;;;27.50;37.80;;;;;;4972963;28;20106;-75
2021/05/01 09:41:18;;;;;;;11.30;7.20;;;27.30;37.80;;;;;;4973159;28;20023;-75
2021/05/01 09:44:07;;;;;;;8.93;7.13;;;27.20;38.10;;;;;;4972980;28;20018;-75
2021/05/01 09:46:39;;;;;;;6.95;5.32;;;27.00;38.00;;;;;;4972773;28;20030;-76
2021/05/01 09:49:11;;;;;;;;;;;26.80;38.60;;;;;;4973479;28;20030;-77
2021/05/01 09:51:50;;;;;;;6.70;5.88;;;26.70;38.50;;;;;;4973572;28;19953;-75
2021/05/01 09:54:24;;;;;;;10.38;7.22;;;26.70;38.70;;;;;;4972903;28;20027;-76
2021/05/01 09:56:50;;;;;;;6.90;6.15;;;26.70;38.70;;;;;;4972918;28;20027;-75
2021/05/01 09:59:16;;;;;;;9.38;7.45;;;26.50;38.70;;;;;;4971917;28;20030;-75
2021/05/01 10:01:58;;;;;;;9.00;6.32;;;26.40;38.90;;;;;;4970769;28;20110;-76
2021/05/01 10:04:25;;;;;;;43.63;34.22;;;26.30;39.30;;;;;;4972059;28;20103;-75
2021/05/01 10:07:00;;;;;;;30.92;22.25;;;26.30;39.40;;;;;;4972055;28;20027;-76
2021/05/01 10:09:32;;;;;;;15.50;10.85;;;26.20;39.40;;;;;;4971822;28;20023;-76
2021/05/01 10:12:15;;;;;;;10.20;7.60;;;26.10;39.30;;;;;;4971936;28;20034;-75
2021/05/01 10:14:44;;;;;;;13.98;9.50;;;25.80;39.70;;;;;;4970678;28;20339;-74
2021/05/01 10:17:27;;;;;;;7.45;6.55;;;25.50;40.70;;;;;;4970829;28;20026;-74
2021/05/01 10:19:54;;;;;;;7.82;6.20;;;25.20;40.50;;;;;;4971865;28;20050;-77
2021/05/01 10:22:23;;;;;;;11.18;7.18;;;25.20;41.00;;;;;;4972170;28;20041;-78
2021/05/01 10:24:49;;;;;;;8.18;5.95;;;25.40;41.20;;;;;;4971100;28;20037;-77
2021/05/01 10:27:16;;;;;;;11.10;8.60;;;25.30;40.80;;;;;;4971509;28;20047;-79
2021/05/01 10:29:43;;;;;;;8.77;5.50;;;25.40;41.00;;;;;;4971994;28;20031;-77
2021/05/01 10:32:31;;;;;;;8.45;6.15;;;25.40;41.00;;;;;;4972144;28;20015;-77
2021/05/01 10:34:58;;;;;;;7.20;5.93;;;25.40;40.80;;;;;;4971467;28;20124;-78
2021/05/01 10:37:30;;;;;;;6.45;5.85;;;25.40;40.70;;;;;;4970268;28;20186;-77
2021/05/01 10:39:56;;;;;;;;;;;25.20;40.90;;;;;;4972447;28;20022;-76
2021/05/01 10:42:22;;;;;;;11.20;6.68;;;25.20;41.00;;;;;;4971916;28;20357;-77
2021/05/01 10:44:59;;;;;;;9.65;6.45;;;25.20;41.00;;;;;;4970730;28;20030;-77
2021/05/01 10:47:25;;;;;;;10.85;6.30;;;25.20;41.00;;;;;;4971681;28;20031;-78
2021/05/01 10:49:51;;;;;;;8.82;6.60;;;25.20;41.10;;;;;;4971482;28;20042;-76
2021/05/01 10:52:19;;;;;;;7.57;5.72;;;25.20;41.00;;;;;;4969343;28;20070;-76
2021/05/01 10:55:05;;;;;;;8.13;6.70;;;25.20;41.10;;;;;;4969882;28;20066;-76
2021/05/01 10:57:39;;;;;;;13.05;6.75;;;25.30;41.00;;;;;;4971618;28;20031;-77
2021/05/01 11:00:42;;;;;;;10.02;7.15;;;25.30;40.90;;;;;;4971760;28;20027;-77
2021/05/01 11:03:08;;;;;;;12.57;8.63;;;25.20;40.90;;;;;;4947987;28;20034;-76
2021/05/01 11:05:41;;;;;;;12.48;8.70;;;25.00;41.30;;;;;;4971299;28;20105;-75
2021/05/01 11:08:43;;;;;;;15.32;10.48;;;25.00;41.90;;;;;;4970264;28;20374;-74
2021/05/01 11:11:14;;;;;;;15.00;10.63;;;24.80;41.90;;;;;;4970353;28;20038;-74
2021/05/01 11:13:41;;;;;;;23.33;14.50;;;24.80;41.80;;;;;;4971478;28;20031;-75
2021/05/01 11:16:09;;;;;;;25.92;14.13;;;24.60;41.80;;;;;;4971492;28;20484;-76
2021/05/01 11:18:38;;;;;;;17.00;12.75;;;24.50;42.10;;;;;;4970146;28;20050;-74
2021/05/01 11:21:07;;;;;;;14.43;11.93;;;24.50;42.10;;;;;;4971310;28;20102;-74
2021/05/01 11:23:37;;;;;;;16.60;12.32;;;24.50;42.20;;;;;;4971407;28;20038;-73
2021/05/01 11:26:07;;;;;;;15.27;11.90;;;24.60;42.40;;;;;;4970947;28;20773;-75
2021/05/01 11:28:35;;;;;;;16.13;12.07;;;24.80;42.60;;;;;;4971312;28;20030;-74
2021/05/01 11:31:01;;;;;;;17.48;13.00;;;24.90;42.40;;;;;;4971481;28;20034;-75
2021/05/01 11:33:27;;;;;;;17.70;11.30;;;25.10;42.20;;;;;;4971634;28;20131;-75
2021/05/01 11:35:54;;;;;;;12.50;9.10;;;25.20;42.00;;;;;;4971277;28;20078;-74
2021/05/01 11:38:37;;;;;;;16.58;10.98;;;25.30;42.00;;;;;;4972823;28;20031;-74
2021/05/01 11:41:08;;;;;;;12.95;8.85;;;25.30;41.50;;;;;;4971060;28;20097;-74
2021/05/01 11:43:36;;;;;;;15.50;8.97;;;25.30;41.20;;;;;;4970338;28;20085;-78
2021/05/01 11:46:32;;;;;;;13.32;9.60;;;25.10;41.10;;;;;;4971691;28;20028;-77
2021/05/01 11:49:05;;;;;;;14.98;9.25;;;24.90;41.20;;;;;;4974688;28;20030;-78
2021/05/01 11:51:49;;;;;;;19.73;9.73;;;24.70;41.50;;;;;;4974925;28;20388;-78
2021/05/01 11:54:26;;;;;;;12.45;10.20;;;24.50;41.80;;;;;;4974711;28;20022;-78
2021/05/01 11:57:22;;;;;;;14.50;10.85;;;24.50;41.80;;;;;;4974711;28;20377;-78
2021/05/01 11:59:49;;;;;;;12.73;10.65;;;24.30;42.00;;;;;;4975002;28;20023;-78
2021/05/01 12:02:15;;;;;;;13.25;10.23;;;24.30;42.10;;;;;;4973101;28;20469;-78
2021/05/01 12:04:56;;;;;;;14.73;10.13;;;24.30;42.30;;;;;;4974014;28;20035;-77
2021/05/01 12:07:34;;;;;;;13.60;10.57;;;24.40;42.30;;;;;;4975472;28;20377;-78
2021/05/01 12:10:10;;;;;;;13.63;10.70;;;24.40;42.30;;;;;;4974017;28;20031;-79
2021/05/01 12:12:41;;;;;;;18.27;10.35;;;24.40;42.60;;;;;;4974413;28;20015;-78
2021/05/01 12:15:10;;;;;;;21.65;10.70;;;24.40;42.60;;;;;;4974332;28;20093;-79
2021/05/01 12:17:38;;;;;;;11.07;9.88;;;24.40;42.70;;;;;;5005026;28;20023;-79
2021/05/01 12:20:11;;;;;;;16.85;10.55;;;24.40;42.60;;;;;;4973473;28;20014;-79
2021/05/01 12:22:38;;;;;;;14.68;10.35;;;24.30;43.00;;;;;;4973496;28;20378;-80
2021/05/01 12:25:30;;;;;;;12.77;10.23;;;24.30;43.30;;;;;;4974153;28;20034;-78
2021/05/01 12:27:58;;;;;;;15.52;10.88;;;24.20;43.30;;;;;;4969480;28;20085;-77
2021/05/01 12:30:43;;;;;;;13.73;11.35;;;24.20;43.60;;;;;;4974661;28;20478;-77
2021/05/01 12:33:27;;;;;;;17.27;10.90;;;24.10;43.60;;;;;;4974803;28;20055;-76
2021/05/01 12:35:59;;;;;;;14.27;11.13;;;23.90;43.80;;;;;;4973457;28;20074;-77
2021/05/01 12:38:28;;;;;;;14.20;10.93;;;23.70;43.80;;;;;;4974738;28;20031;-77
2021/05/01 12:41:06;;;;;;;15.93;11.98;;;23.50;44.40;;;;;;4974550;28;20027;-78
2021/05/01 12:43:32;;;;;;;14.93;11.93;;;23.50;44.70;;;;;;4973427;28;20023;-80
2021/05/01 12:46:21;;;;;;;15.52;11.88;;;23.50;44.70;;;;;;4974721;28;20023;-79
2021/05/01 12:49:00;;;;;;;15.25;11.73;;;23.60;44.70;;;;;;4967431;28;20046;-79